UZB234 UZTT-UUWW
Flight info
| Callsign | UZB234 |
|---|---|
| Flight time | N/A |
| Altitude | 38000 |
| Route | DODUR1B DODUR L163 INKUM M199 ODILA M875 MULTA M162 PODUT T750 UDATA |
| Aircraft | A20N/M-SDE2E3FGHIRWXY/LB1 |
Departure
| Time | 2026-04-15 18:26 |
|---|---|
| Airport | Tashkent International Airport (UZTT) |
Arrival
| Time | N/A |
|---|---|
| Airport | Vnukovo International Airport (UUWW) |
| Time | Latitude | Longitude | Altitude | Speed | Heading |
|---|---|---|---|---|---|
| 2026-04-15 18:20 | 41.26069 | 69.26948 | 1410 ft | 0 kts | 81° |
| 2026-04-15 18:20 | 41.26069 | 69.26949 | 1410 ft | 0 kts | 78° |
| 2026-04-15 18:21 | 41.26079 | 69.26989 | 1408 ft | 12 kts | 69° |
| 2026-04-15 18:21 | 41.26118 | 69.27102 | 1411 ft | 14 kts | 65° |
| 2026-04-15 18:21 | 41.26088 | 69.27214 | 1403 ft | 15 kts | 134° |
| 2026-04-15 18:21 | 41.26075 | 69.27345 | 1408 ft | 16 kts | 79° |
| 2026-04-15 18:22 | 41.26097 | 69.27547 | 1407 ft | 27 kts | 81° |
| 2026-04-15 18:22 | 41.26127 | 69.27806 | 1408 ft | 29 kts | 81° |
| 2026-04-15 18:22 | 41.26156 | 69.28076 | 1409 ft | 30 kts | 81° |
| 2026-04-15 18:22 | 41.26187 | 69.28353 | 1405 ft | 30 kts | 83° |
| 2026-04-15 18:23 | 41.26183 | 69.28635 | 1406 ft | 31 kts | 92° |
| 2026-04-15 18:23 | 41.26191 | 69.28920 | 1405 ft | 31 kts | 86° |
| 2026-04-15 18:23 | 41.26201 | 69.29204 | 1409 ft | 31 kts | 87° |
| 2026-04-15 18:23 | 41.26211 | 69.29496 | 1403 ft | 32 kts | 88° |
| 2026-04-15 18:24 | 41.26222 | 69.29789 | 1403 ft | 32 kts | 86° |
| 2026-04-15 18:24 | 41.26194 | 69.30011 | 1408 ft | 21 kts | 140° |
| 2026-04-15 18:24 | 41.26156 | 69.30050 | 1409 ft | 0 kts | 143° |
| 2026-04-15 18:24 | 41.26155 | 69.30051 | 1409 ft | 1 kts | 143° |
| 2026-04-15 18:25 | 41.26095 | 69.30085 | 1406 ft | 15 kts | 176° |
| 2026-04-15 18:25 | 41.26052 | 69.29988 | 1411 ft | 14 kts | 262° |
| 2026-04-15 18:25 | 41.26025 | 69.29762 | 1403 ft | 51 kts | 261° |
| 2026-04-15 18:25 | 41.25946 | 69.29025 | 1404 ft | 109 kts | 262° |
| 2026-04-15 18:26 | 41.25813 | 69.27817 | 1404 ft | 153 kts | 261° |
| 2026-04-15 18:26 | 41.25642 | 69.26314 | 1710 ft | 164 kts | 262° |
| 2026-04-15 18:26 | 41.25473 | 69.24793 | 2218 ft | 171 kts | 263° |
| 2026-04-15 18:26 | 41.25313 | 69.23171 | 2701 ft | 179 kts | 263° |
| 2026-04-15 18:27 | 41.25135 | 69.21556 | 3342 ft | 174 kts | 263° |
| 2026-04-15 18:27 | 41.24947 | 69.19915 | 3522 ft | 190 kts | 263° |
| 2026-04-15 18:27 | 41.24742 | 69.18084 | 3829 ft | 211 kts | 263° |
| 2026-04-15 18:27 | 41.24521 | 69.16067 | 4221 ft | 230 kts | 262° |
| 2026-04-15 18:28 | 41.24287 | 69.13960 | 5078 ft | 231 kts | 262° |
| 2026-04-15 18:28 | 41.24052 | 69.11850 | 6040 ft | 232 kts | 261° |
| 2026-04-15 18:28 | 41.23816 | 69.09717 | 6909 ft | 235 kts | 261° |
| 2026-04-15 18:28 | 41.23579 | 69.07573 | 7788 ft | 237 kts | 260° |
| 2026-04-15 18:29 | 41.23323 | 69.05320 | 8328 ft | 256 kts | 259° |
| 2026-04-15 18:29 | 41.23045 | 69.02924 | 9027 ft | 265 kts | 259° |
| 2026-04-15 18:29 | 41.22771 | 69.00535 | 10033 ft | 264 kts | 258° |
| 2026-04-15 18:29 | 41.22509 | 68.98089 | 10709 ft | 277 kts | 263° |
| 2026-04-15 18:30 | 41.22818 | 68.95428 | 11013 ft | 311 kts | 286° |
| 2026-04-15 18:30 | 41.24051 | 68.92900 | 11405 ft | 342 kts | 309° |
| 2026-04-15 18:30 | 41.26054 | 68.91071 | 12150 ft | 359 kts | 328° |
| 2026-04-15 18:30 | 41.28434 | 68.89884 | 12899 ft | 373 kts | 342° |
| 2026-04-15 18:31 | 41.31075 | 68.89698 | 13605 ft | 391 kts | 4° |
| 2026-04-15 18:31 | 41.33723 | 68.90733 | 14262 ft | 404 kts | 25° |
| 2026-04-15 18:31 | 41.36021 | 68.92913 | 14954 ft | 408 kts | 46° |
| 2026-04-15 18:31 | 41.37680 | 68.95971 | 15623 ft | 408 kts | 67° |
| 2026-04-15 18:32 | 41.38507 | 68.99548 | 16277 ft | 403 kts | 88° |
| 2026-04-15 18:32 | 41.38759 | 69.03273 | 16917 ft | 408 kts | 86° |
| 2026-04-15 18:32 | 41.39551 | 69.06942 | 17577 ft | 419 kts | 68° |
| 2026-04-15 18:32 | 41.41113 | 69.10257 | 18221 ft | 427 kts | 50° |
| 2026-04-15 18:33 | 41.43281 | 69.12882 | 18773 ft | 430 kts | 33° |
| 2026-04-15 18:33 | 41.45952 | 69.14676 | 19326 ft | 429 kts | 15° |
| 2026-04-15 18:33 | 41.48857 | 69.15443 | 19871 ft | 425 kts | 358° |
| 2026-04-15 18:33 | 41.51771 | 69.15146 | 20415 ft | 417 kts | 341° |
| 2026-04-15 18:34 | 41.54458 | 69.13832 | 20960 ft | 407 kts | 324° |
| 2026-04-15 18:34 | 41.56712 | 69.11636 | 21488 ft | 396 kts | 307° |
| 2026-04-15 18:34 | 41.58357 | 69.08774 | 22050 ft | 384 kts | 291° |
| 2026-04-15 18:34 | 41.59320 | 69.05506 | 22601 ft | 376 kts | 279° |
| 2026-04-15 18:35 | 41.60377 | 69.02237 | 23146 ft | 392 kts | 293° |
| 2026-04-15 18:35 | 41.61952 | 68.99199 | 23672 ft | 401 kts | 299° |
| 2026-04-15 18:35 | 41.63671 | 68.96241 | 24136 ft | 405 kts | 300° |
| 2026-04-15 18:35 | 41.65387 | 68.93255 | 24606 ft | 406 kts | 299° |
| 2026-04-15 18:36 | 41.67070 | 68.90208 | 25057 ft | 408 kts | 298° |
| 2026-04-15 18:36 | 41.68728 | 68.87108 | 25495 ft | 410 kts | 297° |
| 2026-04-15 18:36 | 41.70373 | 68.83978 | 25936 ft | 413 kts | 297° |
| 2026-04-15 18:36 | 41.72001 | 68.80852 | 26360 ft | 415 kts | 297° |
| 2026-04-15 18:37 | 41.73655 | 68.77667 | 26786 ft | 418 kts | 296° |
| 2026-04-15 18:37 | 41.75317 | 68.74462 | 27205 ft | 420 kts | 296° |
| 2026-04-15 18:37 | 41.76990 | 68.71235 | 27608 ft | 423 kts | 296° |
| 2026-04-15 18:37 | 41.78671 | 68.67993 | 27998 ft | 425 kts | 296° |
| 2026-04-15 18:38 | 41.80363 | 68.64726 | 28374 ft | 427 kts | 296° |
| 2026-04-15 18:38 | 41.82060 | 68.61444 | 28744 ft | 429 kts | 296° |
| 2026-04-15 18:38 | 41.83766 | 68.58143 | 29099 ft | 432 kts | 296° |
| 2026-04-15 18:38 | 41.85479 | 68.54825 | 29451 ft | 434 kts | 296° |
| 2026-04-15 18:39 | 41.87203 | 68.51482 | 29793 ft | 436 kts | 296° |
| 2026-04-15 18:39 | 41.88931 | 68.48126 | 30138 ft | 438 kts | 296° |
| 2026-04-15 18:39 | 41.90672 | 68.44743 | 30442 ft | 440 kts | 296° |
| 2026-04-15 18:39 | 41.92414 | 68.41352 | 30745 ft | 442 kts | 296° |
| 2026-04-15 18:40 | 41.94161 | 68.37949 | 31056 ft | 443 kts | 296° |
| 2026-04-15 18:40 | 41.95911 | 68.34539 | 31402 ft | 444 kts | 296° |
| 2026-04-15 18:40 | 41.97661 | 68.31124 | 31811 ft | 442 kts | 296° |
| 2026-04-15 18:40 | 41.99407 | 68.27715 | 32217 ft | 441 kts | 297° |
| 2026-04-15 18:41 | 42.01120 | 68.24365 | 32602 ft | 440 kts | 297° |
| 2026-04-15 18:41 | 42.02872 | 68.20976 | 32984 ft | 441 kts | 299° |
| 2026-04-15 18:41 | 42.04858 | 68.17793 | 33349 ft | 447 kts | 306° |
| 2026-04-15 18:41 | 42.06984 | 68.14750 | 33717 ft | 446 kts | 306° |
| 2026-04-15 18:42 | 42.09099 | 68.11701 | 34048 ft | 445 kts | 306° |
| 2026-04-15 18:42 | 42.11206 | 68.08654 | 34338 ft | 444 kts | 306° |
| 2026-04-15 18:42 | 42.13313 | 68.05600 | 34596 ft | 444 kts | 306° |
| 2026-04-15 18:42 | 42.15417 | 68.02547 | 34842 ft | 444 kts | 306° |
| 2026-04-15 18:43 | 42.17517 | 67.99498 | 35089 ft | 444 kts | 306° |
| 2026-04-15 18:43 | 42.19614 | 67.96452 | 35323 ft | 444 kts | 306° |
| 2026-04-15 18:43 | 42.21718 | 67.93392 | 35554 ft | 443 kts | 306° |
| 2026-04-15 18:43 | 42.23817 | 67.90338 | 35781 ft | 443 kts | 306° |
| 2026-04-15 18:44 | 42.25912 | 67.87285 | 36006 ft | 443 kts | 306° |
| 2026-04-15 18:44 | 42.28004 | 67.84234 | 36227 ft | 443 kts | 306° |
| 2026-04-15 18:44 | 42.30096 | 67.81179 | 36443 ft | 442 kts | 306° |
| 2026-04-15 18:44 | 42.32189 | 67.78121 | 36651 ft | 442 kts | 306° |
| 2026-04-15 18:45 | 42.34274 | 67.75070 | 36843 ft | 442 kts | 306° |
| 2026-04-15 18:45 | 42.36331 | 67.72057 | 37042 ft | 442 kts | 306° |
| 2026-04-15 18:45 | 42.38413 | 67.69004 | 37233 ft | 441 kts | 306° |
| 2026-04-15 18:45 | 42.40493 | 67.65952 | 37424 ft | 441 kts | 305° |
| 2026-04-15 18:46 | 42.42575 | 67.62893 | 37606 ft | 441 kts | 305° |
| 2026-04-15 18:46 | 42.44651 | 67.59839 | 37787 ft | 440 kts | 305° |
| 2026-04-15 18:46 | 42.46725 | 67.56786 | 37962 ft | 440 kts | 305° |
| 2026-04-15 18:47 | 42.50863 | 67.50684 | 38021 ft | 439 kts | 305° |
| 2026-04-15 18:47 | 42.54988 | 67.44588 | 38023 ft | 439 kts | 305° |
| 2026-04-15 18:48 | 42.59118 | 67.38473 | 38017 ft | 439 kts | 305° |
| 2026-04-15 18:48 | 42.63239 | 67.32365 | 38018 ft | 439 kts | 305° |
| 2026-04-15 18:49 | 42.67335 | 67.26282 | 38021 ft | 439 kts | 305° |
| 2026-04-15 18:49 | 42.71455 | 67.20150 | 38016 ft | 438 kts | 305° |
| 2026-04-15 18:50 | 42.75564 | 67.14020 | 38010 ft | 438 kts | 305° |
| 2026-04-15 18:50 | 42.79669 | 67.07884 | 38010 ft | 438 kts | 305° |
| 2026-04-15 18:51 | 42.83769 | 67.01741 | 37998 ft | 438 kts | 305° |
| 2026-04-15 18:51 | 42.87869 | 66.95586 | 38004 ft | 438 kts | 305° |
| 2026-04-15 18:52 | 42.91964 | 66.89426 | 37999 ft | 438 kts | 305° |
| 2026-04-15 18:52 | 42.96057 | 66.83255 | 38000 ft | 438 kts | 305° |
| 2026-04-15 18:53 | 43.00152 | 66.77069 | 38000 ft | 439 kts | 305° |
| 2026-04-15 18:53 | 43.04216 | 66.70906 | 37993 ft | 439 kts | 305° |
| 2026-04-15 18:54 | 43.08306 | 66.64686 | 37997 ft | 440 kts | 305° |
| 2026-04-15 18:54 | 43.12404 | 66.58443 | 37993 ft | 441 kts | 305° |
| 2026-04-15 18:55 | 43.16507 | 66.52179 | 37994 ft | 442 kts | 305° |
| 2026-04-15 18:55 | 43.20612 | 66.45899 | 37999 ft | 443 kts | 305° |
| 2026-04-15 18:56 | 43.24722 | 66.39597 | 37995 ft | 444 kts | 306° |
| 2026-04-15 18:56 | 43.28845 | 66.33269 | 38002 ft | 445 kts | 306° |
| 2026-04-15 18:57 | 43.32971 | 66.26923 | 38007 ft | 446 kts | 306° |
| 2026-04-15 18:57 | 43.37105 | 66.20549 | 38007 ft | 447 kts | 306° |
| 2026-04-15 18:58 | 43.41222 | 66.14185 | 38000 ft | 448 kts | 306° |
| 2026-04-15 18:58 | 43.45368 | 66.07764 | 38012 ft | 449 kts | 306° |
| 2026-04-15 18:59 | 43.49515 | 66.01327 | 38002 ft | 450 kts | 306° |
| 2026-04-15 18:59 | 43.53665 | 65.94869 | 38006 ft | 450 kts | 306° |
| 2026-04-15 19:00 | 43.57122 | 65.89479 | 38004 ft | 451 kts | 306° |
| 2026-04-15 19:00 | 43.61976 | 65.81894 | 38004 ft | 451 kts | 305° |
| 2026-04-15 19:01 | 43.66129 | 65.75389 | 38004 ft | 452 kts | 305° |
| 2026-04-15 19:01 | 43.70254 | 65.68910 | 38001 ft | 452 kts | 306° |
| 2026-04-15 19:02 | 43.73712 | 65.63471 | 37998 ft | 452 kts | 306° |
| 2026-04-15 19:02 | 43.77865 | 65.56922 | 37994 ft | 452 kts | 306° |
| 2026-04-15 19:03 | 43.82012 | 65.50369 | 37989 ft | 452 kts | 306° |
| 2026-04-15 19:03 | 43.86148 | 65.43817 | 37982 ft | 452 kts | 306° |
| 2026-04-15 19:04 | 43.90277 | 65.37261 | 37979 ft | 451 kts | 306° |
| 2026-04-15 19:04 | 43.94404 | 65.30695 | 37975 ft | 451 kts | 306° |
| 2026-04-15 19:05 | 43.98530 | 65.24114 | 37972 ft | 451 kts | 306° |
| 2026-04-15 19:05 | 44.02635 | 65.17551 | 37965 ft | 450 kts | 306° |
| 2026-04-15 19:06 | 44.06752 | 65.10954 | 37963 ft | 454 kts | 306° |
| 2026-04-15 19:06 | 44.10893 | 65.04298 | 37961 ft | 461 kts | 306° |
| 2026-04-15 19:07 | 44.15107 | 64.97517 | 37963 ft | 462 kts | 306° |
| 2026-04-15 19:07 | 44.19306 | 64.90744 | 37956 ft | 462 kts | 306° |
| 2026-04-15 19:08 | 44.23507 | 64.83951 | 37955 ft | 462 kts | 306° |
| 2026-04-15 19:08 | 44.27710 | 64.77135 | 37955 ft | 462 kts | 306° |
| 2026-04-15 19:09 | 44.31869 | 64.70356 | 37951 ft | 462 kts | 306° |
| 2026-04-15 19:09 | 44.36054 | 64.63521 | 37948 ft | 463 kts | 306° |
| 2026-04-15 19:10 | 44.40239 | 64.56682 | 37948 ft | 463 kts | 306° |
| 2026-04-15 19:10 | 44.44427 | 64.49837 | 37941 ft | 463 kts | 306° |
| 2026-04-15 19:11 | 44.48614 | 64.42965 | 37940 ft | 463 kts | 306° |
| 2026-04-15 19:11 | 44.52796 | 64.36084 | 37935 ft | 464 kts | 306° |
| 2026-04-15 19:12 | 44.56982 | 64.29179 | 37933 ft | 464 kts | 306° |
| 2026-04-15 19:12 | 44.61165 | 64.22262 | 37940 ft | 465 kts | 306° |
| 2026-04-15 19:13 | 44.65304 | 64.15403 | 37933 ft | 465 kts | 306° |
| 2026-04-15 19:13 | 44.69500 | 64.08430 | 37926 ft | 466 kts | 306° |
| 2026-04-15 19:14 | 44.73682 | 64.01465 | 37927 ft | 466 kts | 306° |
| 2026-04-15 19:14 | 44.77866 | 63.94480 | 37920 ft | 467 kts | 306° |
| 2026-04-15 19:15 | 44.82050 | 63.87475 | 37915 ft | 467 kts | 306° |
| 2026-04-15 19:15 | 44.86235 | 63.80452 | 37908 ft | 468 kts | 306° |
| 2026-04-15 19:16 | 44.90419 | 63.73414 | 37903 ft | 468 kts | 306° |
| 2026-04-15 19:16 | 44.94578 | 63.66402 | 37897 ft | 469 kts | 306° |
| 2026-04-15 19:17 | 44.97373 | 63.61678 | 37894 ft | 469 kts | 306° |